sensor_id;sensor_type;location;lat;lon;timestamp;P1;P2;P0
56069;PMS5003;41944;52.078;-0.058;2023-05-07T00:01:09;16;15;
56069;PMS5003;41944;52.078;-0.058;2023-05-07T00:03:36;14;14;
56069;PMS5003;41944;52.078;-0.058;2023-05-07T00:06:03;17;14;
56069;PMS5003;41944;52.078;-0.058;2023-05-07T00:08:30;23;23;
56069;PMS5003;41944;52.078;-0.058;2023-05-07T00:10:57;19;19;
56069;PMS5003;41944;52.078;-0.058;2023-05-07T00:13:24;25;24;
56069;PMS5003;41944;52.078;-0.058;2023-05-07T00:15:51;19;19;
56069;PMS5003;41944;52.078;-0.058;2023-05-07T00:18:18;22;19;
56069;PMS5003;41944;52.078;-0.058;2023-05-07T00:20:46;24;23;
56069;PMS5003;41944;52.078;-0.058;2023-05-07T00:23:13;24;23;
56069;PMS5003;41944;52.078;-0.058;2023-05-07T00:25:40;21;20;
56069;PMS5003;41944;52.078;-0.058;2023-05-07T00:28:07;21;20;
56069;PMS5003;41944;52.078;-0.058;2023-05-07T00:30:34;26;23;
56069;PMS5003;41944;52.078;-0.058;2023-05-07T00:33:01;20;16;
56069;PMS5003;41944;52.078;-0.058;2023-05-07T00:35:28;23;21;
56069;PMS5003;41944;52.078;-0.058;2023-05-07T00:37:56;23;20;
56069;PMS5003;41944;52.078;-0.058;2023-05-07T00:40:23;22;21;
56069;PMS5003;41944;52.078;-0.058;2023-05-07T00:42:50;18;17;
56069;PMS5003;41944;52.078;-0.058;2023-05-07T00:45:17;21;19;
56069;PMS5003;41944;52.078;-0.058;2023-05-07T00:47:44;24;22;
56069;PMS5003;41944;52.078;-0.058;2023-05-07T00:50:11;21;21;
56069;PMS5003;41944;52.078;-0.058;2023-05-07T00:52:38;23;21;
56069;PMS5003;41944;52.078;-0.058;2023-05-07T00:55:06;24;22;
56069;PMS5003;41944;52.078;-0.058;2023-05-07T00:57:35;24;21;
56069;PMS5003;41944;52.078;-0.058;2023-05-07T01:00:04;23;23;
56069;PMS5003;41944;52.078;-0.058;2023-05-07T01:02:31;25;20;
56069;PMS5003;41944;52.078;-0.058;2023-05-07T01:04:59;21;20;
56069;PMS5003;41944;52.078;-0.058;2023-05-07T01:07:27;29;25;
56069;PMS5003;41944;52.078;-0.058;2023-05-07T01:09:55;24;22;
56069;PMS5003;41944;52.078;-0.058;2023-05-07T01:12:23;24;21;
56069;PMS5003;41944;52.078;-0.058;2023-05-07T01:14:50;20;20;
56069;PMS5003;41944;52.078;-0.058;2023-05-07T01:17:18;26;23;
56069;PMS5003;41944;52.078;-0.058;2023-05-07T01:19:45;25;24;
56069;PMS5003;41944;52.078;-0.058;2023-05-07T01:22:13;25;22;
56069;PMS5003;41944;52.078;-0.058;2023-05-07T01:24:43;22;20;
56069;PMS5003;41944;52.078;-0.058;2023-05-07T01:27:10;29;25;
56069;PMS5003;41944;52.078;-0.058;2023-05-07T01:29:37;23;22;
56069;PMS5003;41944;52.078;-0.058;2023-05-07T01:32:04;20;17;
56069;PMS5003;41944;52.078;-0.058;2023-05-07T01:34:32;22;22;
56069;PMS5003;41944;52.078;-0.058;2023-05-07T01:37:02;19;18;
56069;PMS5003;41944;52.078;-0.058;2023-05-07T01:39:31;23;21;
56069;PMS5003;41944;52.078;-0.058;2023-05-07T01:41:59;25;23;
56069;PMS5003;41944;52.078;-0.058;2023-05-07T01:44:26;21;19;
56069;PMS5003;41944;52.078;-0.058;2023-05-07T01:46:54;23;19;
56069;PMS5003;41944;52.078;-0.058;2023-05-07T01:49:21;24;21;
56069;PMS5003;41944;52.078;-0.058;2023-05-07T01:51:48;16;16;
56069;PMS5003;41944;52.078;-0.058;2023-05-07T01:54:16;26;22;
56069;PMS5003;41944;52.078;-0.058;2023-05-07T01:56:43;21;21;
56069;PMS5003;41944;52.078;-0.058;2023-05-07T01:59:10;21;20;
56069;PMS5003;41944;52.078;-0.058;2023-05-07T02:01:38;21;20;
56069;PMS5003;41944;52.078;-0.058;2023-05-07T02:04:05;18;18;
56069;PMS5003;41944;52.078;-0.058;2023-05-07T02:06:32;22;19;
56069;PMS5003;41944;52.078;-0.058;2023-05-07T02:08:59;25;21;
56069;PMS5003;41944;52.078;-0.058;2023-05-07T02:11:26;22;20;
56069;PMS5003;41944;52.078;-0.058;2023-05-07T02:13:54;24;21;
56069;PMS5003;41944;52.078;-0.058;2023-05-07T02:16:21;23;21;
56069;PMS5003;41944;52.078;-0.058;2023-05-07T02:18:48;24;20;
56069;PMS5003;41944;52.078;-0.058;2023-05-07T02:21:15;22;21;
56069;PMS5003;41944;52.078;-0.058;2023-05-07T02:23:43;23;21;
56069;PMS5003;41944;52.078;-0.058;2023-05-07T02:26:10;22;21;
56069;PMS5003;41944;52.078;-0.058;2023-05-07T02:28:37;22;22;
56069;PMS5003;41944;52.078;-0.058;2023-05-07T02:31:04;25;23;
56069;PMS5003;41944;52.078;-0.058;2023-05-07T02:33:32;22;21;
56069;PMS5003;41944;52.078;-0.058;2023-05-07T02:36:04;20;18;
56069;PMS5003;41944;52.078;-0.058;2023-05-07T02:38:32;25;22;
56069;PMS5003;41944;52.078;-0.058;2023-05-07T02:40:59;25;19;
56069;PMS5003;41944;52.078;-0.058;2023-05-07T02:43:26;26;22;
56069;PMS5003;41944;52.078;-0.058;2023-05-07T02:46:00;22;22;
56069;PMS5003;41944;52.078;-0.058;2023-05-07T02:48:28;18;16;
56069;PMS5003;41944;52.078;-0.058;2023-05-07T02:50:55;25;23;
56069;PMS5003;41944;52.078;-0.058;2023-05-07T02:53:23;21;21;
56069;PMS5003;41944;52.078;-0.058;2023-05-07T02:55:50;21;18;
56069;PMS5003;41944;52.078;-0.058;2023-05-07T02:58:17;24;19;
56069;PMS5003;41944;52.078;-0.058;2023-05-07T03:00:45;22;20;
56069;PMS5003;41944;52.078;-0.058;2023-05-07T03:03:11;22;21;
56069;PMS5003;41944;52.078;-0.058;2023-05-07T03:05:39;22;22;
56069;PMS5003;41944;52.078;-0.058;2023-05-07T03:08:06;21;20;
56069;PMS5003;41944;52.078;-0.058;2023-05-07T03:10:33;20;18;
56069;PMS5003;41944;52.078;-0.058;2023-05-07T03:13:01;20;18;
56069;PMS5003;41944;52.078;-0.058;2023-05-07T03:15:29;23;20;
56069;PMS5003;41944;52.078;-0.058;2023-05-07T03:17:56;22;19;
56069;PMS5003;41944;52.078;-0.058;2023-05-07T03:20:23;19;19;
56069;PMS5003;41944;52.078;-0.058;2023-05-07T03:22:50;23;18;
56069;PMS5003;41944;52.078;-0.058;2023-05-07T03:25:17;21;21;
56069;PMS5003;41944;52.078;-0.058;2023-05-07T03:27:44;19;19;
56069;PMS5003;41944;52.078;-0.058;2023-05-07T03:30:12;18;17;
56069;PMS5003;41944;52.078;-0.058;2023-05-07T03:32:39;17;16;
56069;PMS5003;41944;52.078;-0.058;2023-05-07T03:35:06;20;16;
56069;PMS5003;41944;52.078;-0.058;2023-05-07T03:37:33;18;18;
56069;PMS5003;41944;52.078;-0.058;2023-05-07T03:40:01;16;14;
56069;PMS5003;41944;52.078;-0.058;2023-05-07T03:42:28;22;19;
56069;PMS5003;41944;52.078;-0.058;2023-05-07T03:44:55;17;16;
56069;PMS5003;41944;52.078;-0.058;2023-05-07T03:47:22;22;19;
56069;PMS5003;41944;52.078;-0.058;2023-05-07T03:49:49;15;15;
56069;PMS5003;41944;52.078;-0.058;2023-05-07T03:52:16;16;16;
56069;PMS5003;41944;52.078;-0.058;2023-05-07T03:54:43;20;18;
56069;PMS5003;41944;52.078;-0.058;2023-05-07T03:57:10;21;18;
56069;PMS5003;41944;52.078;-0.058;2023-05-07T03:59:37;17;17;
56069;PMS5003;41944;52.078;-0.058;2023-05-07T04:02:04;24;23;
56069;PMS5003;41944;52.078;-0.058;2023-05-07T04:04:31;20;20;
56069;PMS5003;41944;52.078;-0.058;2023-05-07T04:06:58;20;19;
56069;PMS5003;41944;52.078;-0.058;2023-05-07T04:09:25;19;16;
56069;PMS5003;41944;52.078;-0.058;2023-05-07T04:11:52;18;17;
56069;PMS5003;41944;52.078;-0.058;2023-05-07T04:14:19;22;20;
56069;PMS5003;41944;52.078;-0.058;2023-05-07T04:16:46;21;14;
56069;PMS5003;41944;52.078;-0.058;2023-05-07T04:19:13;19;17;
56069;PMS5003;41944;52.078;-0.058;2023-05-07T04:21:40;20;18;
56069;PMS5003;41944;52.078;-0.058;2023-05-07T04:24:08;24;20;
56069;PMS5003;41944;52.078;-0.058;2023-05-07T04:26:35;21;20;
56069;PMS5003;41944;52.078;-0.058;2023-05-07T04:29:03;24;19;
56069;PMS5003;41944;52.078;-0.058;2023-05-07T04:31:30;23;21;
56069;PMS5003;41944;52.078;-0.058;2023-05-07T04:33:57;17;17;
56069;PMS5003;41944;52.078;-0.058;2023-05-07T04:36:24;24;21;
56069;PMS5003;41944;52.078;-0.058;2023-05-07T04:38:51;20;18;
56069;PMS5003;41944;52.078;-0.058;2023-05-07T04:41:18;18;17;
56069;PMS5003;41944;52.078;-0.058;2023-05-07T04:43:45;22;21;
56069;PMS5003;41944;52.078;-0.058;2023-05-07T04:46:12;18;18;
56069;PMS5003;41944;52.078;-0.058;2023-05-07T04:48:39;19;18;
56069;PMS5003;41944;52.078;-0.058;2023-05-07T04:51:07;22;19;
56069;PMS5003;41944;52.078;-0.058;2023-05-07T04:53:33;20;20;
56069;PMS5003;41944;52.078;-0.058;2023-05-07T04:56:01;25;21;
56069;PMS5003;41944;52.078;-0.058;2023-05-07T04:58:28;19;17;
56069;PMS5003;41944;52.078;-0.058;2023-05-07T05:00:55;22;18;
56069;PMS5003;41944;52.078;-0.058;2023-05-07T05:03:22;22;19;
56069;PMS5003;41944;52.078;-0.058;2023-05-07T05:05:49;20;20;
56069;PMS5003;41944;52.078;-0.058;2023-05-07T05:08:17;19;19;
56069;PMS5003;41944;52.078;-0.058;2023-05-07T05:10:44;23;20;
56069;PMS5003;41944;52.078;-0.058;2023-05-07T05:13:11;20;17;
56069;PMS5003;41944;52.078;-0.058;2023-05-07T05:15:39;16;16;
56069;PMS5003;41944;52.078;-0.058;2023-05-07T05:18:06;17;17;
56069;PMS5003;41944;52.078;-0.058;2023-05-07T05:20:32;19;18;
56069;PMS5003;41944;52.078;-0.058;2023-05-07T05:22:59;21;19;
56069;PMS5003;41944;52.078;-0.058;2023-05-07T05:25:26;22;17;
56069;PMS5003;41944;52.078;-0.058;2023-05-07T05:27:54;20;17;
56069;PMS5003;41944;52.078;-0.058;2023-05-07T05:30:20;18;18;
56069;PMS5003;41944;52.078;-0.058;2023-05-07T05:32:48;17;15;
56069;PMS5003;41944;52.078;-0.058;2023-05-07T05:35:15;24;23;
56069;PMS5003;41944;52.078;-0.058;2023-05-07T05:37:43;21;18;
56069;PMS5003;41944;52.078;-0.058;2023-05-07T05:40:10;15;15;
56069;PMS5003;41944;52.078;-0.058;2023-05-07T05:42:38;17;14;
56069;PMS5003;41944;52.078;-0.058;2023-05-07T05:45:06;20;19;
56069;PMS5003;41944;52.078;-0.058;2023-05-07T05:47:34;18;18;
56069;PMS5003;41944;52.078;-0.058;2023-05-07T05:50:01;23;21;
56069;PMS5003;41944;52.078;-0.058;2023-05-07T05:52:29;24;16;
56069;PMS5003;41944;52.078;-0.058;2023-05-07T05:54:56;16;16;
56069;PMS5003;41944;52.078;-0.058;2023-05-07T05:57:23;20;20;
56069;PMS5003;41944;52.078;-0.058;2023-05-07T05:59:50;24;19;
56069;PMS5003;41944;52.078;-0.058;2023-05-07T06:02:17;17;17;
56069;PMS5003;41944;52.078;-0.058;2023-05-07T06:04:44;22;20;
56069;PMS5003;41944;52.078;-0.058;2023-05-07T06:07:12;21;17;
56069;PMS5003;41944;52.078;-0.058;2023-05-07T06:09:39;20;16;
56069;PMS5003;41944;52.078;-0.058;2023-05-07T06:12:06;20;17;
56069;PMS5003;41944;52.078;-0.058;2023-05-07T06:14:33;24;16;
56069;PMS5003;41944;52.078;-0.058;2023-05-07T06:17:00;17;14;
56069;PMS5003;41944;52.078;-0.058;2023-05-07T06:19:28;18;17;
56069;PMS5003;41944;52.078;-0.058;2023-05-07T06:21:54;19;15;
56069;PMS5003;41944;52.078;-0.058;2023-05-07T06:24:21;18;17;
56069;PMS5003;41944;52.078;-0.058;2023-05-07T06:26:48;19;17;
56069;PMS5003;41944;52.078;-0.058;2023-05-07T06:29:15;20;18;
56069;PMS5003;41944;52.078;-0.058;2023-05-07T06:31:42;19;16;
56069;PMS5003;41944;52.078;-0.058;2023-05-07T06:34:09;20;17;
56069;PMS5003;41944;52.078;-0.058;2023-05-07T06:36:37;20;18;
56069;PMS5003;41944;52.078;-0.058;2023-05-07T06:39:04;20;17;
56069;PMS5003;41944;52.078;-0.058;2023-05-07T06:41:31;21;19;
56069;PMS5003;41944;52.078;-0.058;2023-05-07T06:43:58;19;18;
56069;PMS5003;41944;52.078;-0.058;2023-05-07T06:46:27;17;14;
56069;PMS5003;41944;52.078;-0.058;2023-05-07T06:48:53;17;16;
56069;PMS5003;41944;52.078;-0.058;2023-05-07T06:51:21;22;19;
56069;PMS5003;41944;52.078;-0.058;2023-05-07T06:53:48;17;16;
56069;PMS5003;41944;52.078;-0.058;2023-05-07T06:56:16;18;15;
56069;PMS5003;41944;52.078;-0.058;2023-05-07T06:58:43;17;17;
56069;PMS5003;41944;52.078;-0.058;2023-05-07T07:01:09;17;16;
56069;PMS5003;41944;52.078;-0.058;2023-05-07T07:03:36;19;18;
56069;PMS5003;41944;52.078;-0.058;2023-05-07T07:06:04;22;18;
56069;PMS5003;41944;52.078;-0.058;2023-05-07T07:08:31;22;18;
56069;PMS5003;41944;52.078;-0.058;2023-05-07T07:10:58;22;21;
56069;PMS5003;41944;52.078;-0.058;2023-05-07T07:13:26;25;23;
56069;PMS5003;41944;52.078;-0.058;2023-05-07T07:15:53;24;19;
56069;PMS5003;41944;52.078;-0.058;2023-05-07T07:18:20;22;21;
56069;PMS5003;41944;52.078;-0.058;2023-05-07T07:20:47;21;18;
56069;PMS5003;41944;52.078;-0.058;2023-05-07T07:23:14;18;16;
56069;PMS5003;41944;52.078;-0.058;2023-05-07T07:25:41;20;17;
56069;PMS5003;41944;52.078;-0.058;2023-05-07T07:28:08;20;19;
56069;PMS5003;41944;52.078;-0.058;2023-05-07T07:30:35;25;22;
56069;PMS5003;41944;52.078;-0.058;2023-05-07T07:33:03;22;17;
56069;PMS5003;41944;52.078;-0.058;2023-05-07T07:35:30;25;21;
56069;PMS5003;41944;52.078;-0.058;2023-05-07T07:37:57;18;17;
56069;PMS5003;41944;52.078;-0.058;2023-05-07T07:40:25;24;18;
56069;PMS5003;41944;52.078;-0.058;2023-05-07T07:42:52;25;21;
56069;PMS5003;41944;52.078;-0.058;2023-05-07T07:45:20;22;21;
56069;PMS5003;41944;52.078;-0.058;2023-05-07T07:47:47;24;20;
56069;PMS5003;41944;52.078;-0.058;2023-05-07T07:50:14;27;22;
56069;PMS5003;41944;52.078;-0.058;2023-05-07T07:52:41;24;24;
56069;PMS5003;41944;52.078;-0.058;2023-05-07T07:55:10;22;21;
56069;PMS5003;41944;52.078;-0.058;2023-05-07T07:57:37;21;21;
56069;PMS5003;41944;52.078;-0.058;2023-05-07T08:00:05;26;22;
56069;PMS5003;41944;52.078;-0.058;2023-05-07T08:02:33;25;23;
56069;PMS5003;41944;52.078;-0.058;2023-05-07T08:05:00;24;21;
56069;PMS5003;41944;52.078;-0.058;2023-05-07T08:07:28;24;24;
56069;PMS5003;41944;52.078;-0.058;2023-05-07T08:09:55;30;25;
56069;PMS5003;41944;52.078;-0.058;2023-05-07T08:12:23;24;24;
56069;PMS5003;41944;52.078;-0.058;2023-05-07T08:14:50;28;24;
56069;PMS5003;41944;52.078;-0.058;2023-05-07T08:17:17;27;26;
56069;PMS5003;41944;52.078;-0.058;2023-05-07T08:19:45;26;21;
56069;PMS5003;41944;52.078;-0.058;2023-05-07T08:22:12;24;20;
56069;PMS5003;41944;52.078;-0.058;2023-05-07T08:24:40;22;20;
56069;PMS5003;41944;52.078;-0.058;2023-05-07T08:27:07;24;23;
56069;PMS5003;41944;52.078;-0.058;2023-05-07T08:29:34;25;23;
56069;PMS5003;41944;52.078;-0.058;2023-05-07T08:32:01;21;20;
56069;PMS5003;41944;52.078;-0.058;2023-05-07T08:34:28;25;23;
56069;PMS5003;41944;52.078;-0.058;2023-05-07T08:36:55;19;19;
56069;PMS5003;41944;52.078;-0.058;2023-05-07T08:39:23;26;26;
56069;PMS5003;41944;52.078;-0.058;2023-05-07T08:41:50;22;17;
56069;PMS5003;41944;52.078;-0.058;2023-05-07T08:44:21;18;18;
56069;PMS5003;41944;52.078;-0.058;2023-05-07T08:46:53;18;16;
56069;PMS5003;41944;52.078;-0.058;2023-05-07T08:49:27;17;16;
56069;PMS5003;41944;52.078;-0.058;2023-05-07T08:51:55;16;14;
56069;PMS5003;41944;52.078;-0.058;2023-05-07T08:54:22;14;14;
56069;PMS5003;41944;52.078;-0.058;2023-05-07T08:56:49;17;15;
56069;PMS5003;41944;52.078;-0.058;2023-05-07T08:59:17;15;15;
56069;PMS5003;41944;52.078;-0.058;2023-05-07T09:01:43;16;14;
56069;PMS5003;41944;52.078;-0.058;2023-05-07T09:04:10;16;15;
56069;PMS5003;41944;52.078;-0.058;2023-05-07T09:06:38;12;12;
56069;PMS5003;41944;52.078;-0.058;2023-05-07T09:09:05;15;15;
56069;PMS5003;41944;52.078;-0.058;2023-05-07T09:11:32;18;12;
56069;PMS5003;41944;52.078;-0.058;2023-05-07T09:14:00;15;15;
56069;PMS5003;41944;52.078;-0.058;2023-05-07T09:16:28;15;13;
56069;PMS5003;41944;52.078;-0.058;2023-05-07T09:18:57;17;15;
56069;PMS5003;41944;52.078;-0.058;2023-05-07T09:21:25;17;16;
56069;PMS5003;41944;52.078;-0.058;2023-05-07T09:23:53;15;13;
56069;PMS5003;41944;52.078;-0.058;2023-05-07T09:26:22;9;9;
56069;PMS5003;41944;52.078;-0.058;2023-05-07T09:28:50;17;15;
56069;PMS5003;41944;52.078;-0.058;2023-05-07T09:31:18;14;14;
56069;PMS5003;41944;52.078;-0.058;2023-05-07T09:33:45;11;11;
56069;PMS5003;41944;52.078;-0.058;2023-05-07T09:36:12;13;12;
56069;PMS5003;41944;52.078;-0.058;2023-05-07T09:38:40;13;13;
56069;PMS5003;41944;52.078;-0.058;2023-05-07T09:41:09;15;15;
56069;PMS5003;41944;52.078;-0.058;2023-05-07T09:43:38;12;11;
56069;PMS5003;41944;52.078;-0.058;2023-05-07T09:46:06;16;15;
56069;PMS5003;41944;52.078;-0.058;2023-05-07T09:48:36;16;16;
56069;PMS5003;41944;52.078;-0.058;2023-05-07T09:51:05;19;19;
56069;PMS5003;41944;52.078;-0.058;2023-05-07T09:53:37;24;19;
56069;PMS5003;41944;52.078;-0.058;2023-05-07T09:56:07;14;12;
56069;PMS5003;41944;52.078;-0.058;2023-05-07T09:58:34;14;14;
56069;PMS5003;41944;52.078;-0.058;2023-05-07T10:01:03;16;15;
56069;PMS5003;41944;52.078;-0.058;2023-05-07T10:03:31;14;14;
56069;PMS5003;41944;52.078;-0.058;2023-05-07T10:06:00;17;17;
56069;PMS5003;41944;52.078;-0.058;2023-05-07T10:08:27;18;16;
56069;PMS5003;41944;52.078;-0.058;2023-05-07T10:10:54;16;16;
56069;PMS5003;41944;52.078;-0.058;2023-05-07T10:13:22;13;13;
56069;PMS5003;41944;52.078;-0.058;2023-05-07T10:15:50;16;15;
56069;PMS5003;41944;52.078;-0.058;2023-05-07T10:18:17;12;12;
56069;PMS5003;41944;52.078;-0.058;2023-05-07T10:20:45;16;14;
56069;PMS5003;41944;52.078;-0.058;2023-05-07T10:23:15;12;11;
56069;PMS5003;41944;52.078;-0.058;2023-05-07T10:25:49;15;15;
56069;PMS5003;41944;52.078;-0.058;2023-05-07T10:28:17;11;11;
56069;PMS5003;41944;52.078;-0.058;2023-05-07T10:30:49;14;14;
56069;PMS5003;41944;52.078;-0.058;2023-05-07T10:33:25;12;11;
56069;PMS5003;41944;52.078;-0.058;2023-05-07T10:35:55;12;12;
56069;PMS5003;41944;52.078;-0.058;2023-05-07T10:38:26;15;14;
56069;PMS5003;41944;52.078;-0.058;2023-05-07T10:40:54;18;15;
56069;PMS5003;41944;52.078;-0.058;2023-05-07T10:43:21;11;11;
56069;PMS5003;41944;52.078;-0.058;2023-05-07T10:46:09;13;13;
56069;PMS5003;41944;52.078;-0.058;2023-05-07T10:48:46;13;10;
56069;PMS5003;41944;52.078;-0.058;2023-05-07T10:51:33;13;12;
56069;PMS5003;41944;52.078;-0.058;2023-05-07T10:54:21;11;11;
56069;PMS5003;41944;52.078;-0.058;2023-05-07T10:56:48;16;15;
56069;PMS5003;41944;52.078;-0.058;2023-05-07T10:59:33;9;8;
56069;PMS5003;41944;52.078;-0.058;2023-05-07T11:02:02;9;9;
56069;PMS5003;41944;52.078;-0.058;2023-05-07T11:04:29;11;11;
56069;PMS5003;41944;52.078;-0.058;2023-05-07T11:07:28;10;10;
56069;PMS5003;41944;52.078;-0.058;2023-05-07T11:09:57;10;9;
56069;PMS5003;41944;52.078;-0.058;2023-05-07T11:13:01;9;9;
56069;PMS5003;41944;52.078;-0.058;2023-05-07T11:15:37;15;15;
56069;PMS5003;41944;52.078;-0.058;2023-05-07T11:18:07;13;13;
56069;PMS5003;41944;52.078;-0.058;2023-05-07T11:20:51;17;17;
56069;PMS5003;41944;52.078;-0.058;2023-05-07T11:23:56;13;12;
56069;PMS5003;41944;52.078;-0.058;2023-05-07T11:26:24;13;11;
56069;PMS5003;41944;52.078;-0.058;2023-05-07T11:28:52;11;11;
56069;PMS5003;41944;52.078;-0.058;2023-05-07T11:31:21;13;13;
56069;PMS5003;41944;52.078;-0.058;2023-05-07T11:33:51;12;12;
56069;PMS5003;41944;52.078;-0.058;2023-05-07T11:36:19;13;12;
56069;PMS5003;41944;52.078;-0.058;2023-05-07T11:38:47;14;11;
56069;PMS5003;41944;52.078;-0.058;2023-05-07T11:41:15;12;10;
56069;PMS5003;41944;52.078;-0.058;2023-05-07T11:43:59;11;10;
56069;PMS5003;41944;52.078;-0.058;2023-05-07T11:46:26;10;10;
56069;PMS5003;41944;52.078;-0.058;2023-05-07T11:48:54;11;11;
56069;PMS5003;41944;52.078;-0.058;2023-05-07T11:51:22;13;11;
56069;PMS5003;41944;52.078;-0.058;2023-05-07T11:53:50;12;11;
56069;PMS5003;41944;52.078;-0.058;2023-05-07T11:56:18;10;10;
56069;PMS5003;41944;52.078;-0.058;2023-05-07T11:58:45;10;10;
56069;PMS5003;41944;52.078;-0.058;2023-05-07T12:01:14;10;10;
56069;PMS5003;41944;52.078;-0.058;2023-05-07T12:03:42;9;9;
56069;PMS5003;41944;52.078;-0.058;2023-05-07T12:06:11;7;7;
56069;PMS5003;41944;52.078;-0.058;2023-05-07T12:08:40;8;8;
56069;PMS5003;41944;52.078;-0.058;2023-05-07T12:11:08;9;9;
56069;PMS5003;41944;52.078;-0.058;2023-05-07T12:13:37;7;7;
56069;PMS5003;41944;52.078;-0.058;2023-05-07T12:16:05;9;7;
56069;PMS5003;41944;52.078;-0.058;2023-05-07T12:18:33;10;10;
56069;PMS5003;41944;52.078;-0.058;2023-05-07T12:21:01;8;7;
56069;PMS5003;41944;52.078;-0.058;2023-05-07T12:23:30;5;5;
56069;PMS5003;41944;52.078;-0.058;2023-05-07T12:25:57;7;7;
56069;PMS5003;41944;52.078;-0.058;2023-05-07T12:28:25;6;5;
56069;PMS5003;41944;52.078;-0.058;2023-05-07T12:30:52;9;9;
56069;PMS5003;41944;52.078;-0.058;2023-05-07T12:33:23;7;7;
56069;PMS5003;41944;52.078;-0.058;2023-05-07T12:35:52;9;9;
56069;PMS5003;41944;52.078;-0.058;2023-05-07T12:38:20;9;9;
56069;PMS5003;41944;52.078;-0.058;2023-05-07T12:40:47;8;8;
56069;PMS5003;41944;52.078;-0.058;2023-05-07T12:43:16;8;8;
56069;PMS5003;41944;52.078;-0.058;2023-05-07T12:45:44;9;9;
56069;PMS5003;41944;52.078;-0.058;2023-05-07T12:48:12;6;6;
56069;PMS5003;41944;52.078;-0.058;2023-05-07T12:50:40;8;8;
56069;PMS5003;41944;52.078;-0.058;2023-05-07T12:53:07;6;6;
56069;PMS5003;41944;52.078;-0.058;2023-05-07T12:55:41;7;7;
56069;PMS5003;41944;52.078;-0.058;2023-05-07T12:58:14;9;6;
56069;PMS5003;41944;52.078;-0.058;2023-05-07T13:00:43;6;6;
56069;PMS5003;41944;52.078;-0.058;2023-05-07T13:03:10;6;6;
56069;PMS5003;41944;52.078;-0.058;2023-05-07T13:05:38;7;7;
56069;PMS5003;41944;52.078;-0.058;2023-05-07T13:08:05;6;6;
56069;PMS5003;41944;52.078;-0.058;2023-05-07T13:10:32;7;5;
56069;PMS5003;41944;52.078;-0.058;2023-05-07T13:12:59;11;9;
56069;PMS5003;41944;52.078;-0.058;2023-05-07T13:15:26;7;7;
56069;PMS5003;41944;52.078;-0.058;2023-05-07T13:17:53;9;9;
56069;PMS5003;41944;52.078;-0.058;2023-05-07T13:20:20;9;9;
56069;PMS5003;41944;52.078;-0.058;2023-05-07T13:22:47;10;9;
56069;PMS5003;41944;52.078;-0.058;2023-05-07T13:25:14;12;11;
56069;PMS5003;41944;52.078;-0.058;2023-05-07T13:27:41;8;8;
56069;PMS5003;41944;52.078;-0.058;2023-05-07T13:30:08;8;7;
56069;PMS5003;41944;52.078;-0.058;2023-05-07T13:32:35;9;8;
56069;PMS5003;41944;52.078;-0.058;2023-05-07T13:35:02;8;8;
56069;PMS5003;41944;52.078;-0.058;2023-05-07T13:37:30;8;8;
56069;PMS5003;41944;52.078;-0.058;2023-05-07T13:39:57;9;7;
56069;PMS5003;41944;52.078;-0.058;2023-05-07T13:42:23;7;7;
56069;PMS5003;41944;52.078;-0.058;2023-05-07T13:44:50;9;9;
56069;PMS5003;41944;52.078;-0.058;2023-05-07T13:47:17;10;9;
56069;PMS5003;41944;52.078;-0.058;2023-05-07T13:49:44;9;8;
56069;PMS5003;41944;52.078;-0.058;2023-05-07T13:52:11;9;9;
56069;PMS5003;41944;52.078;-0.058;2023-05-07T13:54:38;9;9;
56069;PMS5003;41944;52.078;-0.058;2023-05-07T13:57:04;7;7;
56069;PMS5003;41944;52.078;-0.058;2023-05-07T13:59:31;5;5;
56069;PMS5003;41944;52.078;-0.058;2023-05-07T14:01:58;7;7;
56069;PMS5003;41944;52.078;-0.058;2023-05-07T14:04:25;9;7;
56069;PMS5003;41944;52.078;-0.058;2023-05-07T14:06:52;9;7;
56069;PMS5003;41944;52.078;-0.058;2023-05-07T14:09:19;8;7;
56069;PMS5003;41944;52.078;-0.058;2023-05-07T14:11:45;8;8;
56069;PMS5003;41944;52.078;-0.058;2023-05-07T14:14:12;9;8;
56069;PMS5003;41944;52.078;-0.058;2023-05-07T14:16:39;9;9;
56069;PMS5003;41944;52.078;-0.058;2023-05-07T14:19:06;8;8;
56069;PMS5003;41944;52.078;-0.058;2023-05-07T14:21:33;10;8;
56069;PMS5003;41944;52.078;-0.058;2023-05-07T14:24:00;15;10;
56069;PMS5003;41944;52.078;-0.058;2023-05-07T14:26:27;8;8;
56069;PMS5003;41944;52.078;-0.058;2023-05-07T14:28:54;8;8;
56069;PMS5003;41944;52.078;-0.058;2023-05-07T14:31:21;10;8;
56069;PMS5003;41944;52.078;-0.058;2023-05-07T14:33:48;7;7;
56069;PMS5003;41944;52.078;-0.058;2023-05-07T14:36:15;10;8;
56069;PMS5003;41944;52.078;-0.058;2023-05-07T14:38:42;11;9;
56069;PMS5003;41944;52.078;-0.058;2023-05-07T14:41:09;7;7;
56069;PMS5003;41944;52.078;-0.058;2023-05-07T14:43:36;14;9;
56069;PMS5003;41944;52.078;-0.058;2023-05-07T14:46:03;7;7;
56069;PMS5003;41944;52.078;-0.058;2023-05-07T14:48:30;8;8;
56069;PMS5003;41944;52.078;-0.058;2023-05-07T14:50:57;8;6;
56069;PMS5003;41944;52.078;-0.058;2023-05-07T14:53:23;8;6;
56069;PMS5003;41944;52.078;-0.058;2023-05-07T14:55:50;6;6;
56069;PMS5003;41944;52.078;-0.058;2023-05-07T14:58:17;5;5;
56069;PMS5003;41944;52.078;-0.058;2023-05-07T15:00:44;8;7;
56069;PMS5003;41944;52.078;-0.058;2023-05-07T15:03:11;6;6;
56069;PMS5003;41944;52.078;-0.058;2023-05-07T15:05:38;6;6;
56069;PMS5003;41944;52.078;-0.058;2023-05-07T15:08:04;5;5;
56069;PMS5003;41944;52.078;-0.058;2023-05-07T15:10:34;7;6;
56069;PMS5003;41944;52.078;-0.058;2023-05-07T15:13:02;8;5;
56069;PMS5003;41944;52.078;-0.058;2023-05-07T15:15:29;7;5;
56069;PMS5003;41944;52.078;-0.058;2023-05-07T15:17:55;11;5;
56069;PMS5003;41944;52.078;-0.058;2023-05-07T15:20:22;6;6;
56069;PMS5003;41944;52.078;-0.058;2023-05-07T15:22:49;9;6;
56069;PMS5003;41944;52.078;-0.058;2023-05-07T15:25:16;6;6;
56069;PMS5003;41944;52.078;-0.058;2023-05-07T15:27:43;5;5;
56069;PMS5003;41944;52.078;-0.058;2023-05-07T15:30:11;7;5;
56069;PMS5003;41944;52.078;-0.058;2023-05-07T15:32:39;10;7;
56069;PMS5003;41944;52.078;-0.058;2023-05-07T15:35:06;7;7;
56069;PMS5003;41944;52.078;-0.058;2023-05-07T15:37:34;6;6;
56069;PMS5003;41944;52.078;-0.058;2023-05-07T15:40:01;4;4;
56069;PMS5003;41944;52.078;-0.058;2023-05-07T15:42:29;6;6;
56069;PMS5003;41944;52.078;-0.058;2023-05-07T15:44:56;6;6;
56069;PMS5003;41944;52.078;-0.058;2023-05-07T15:47:22;5;5;
56069;PMS5003;41944;52.078;-0.058;2023-05-07T15:49:49;7;7;
56069;PMS5003;41944;52.078;-0.058;2023-05-07T15:52:16;9;9;
56069;PMS5003;41944;52.078;-0.058;2023-05-07T15:54:43;7;7;
56069;PMS5003;41944;52.078;-0.058;2023-05-07T15:57:11;7;6;
56069;PMS5003;41944;52.078;-0.058;2023-05-07T15:59:37;5;5;
56069;PMS5003;41944;52.078;-0.058;2023-05-07T16:02:05;7;6;
56069;PMS5003;41944;52.078;-0.058;2023-05-07T16:04:32;5;3;
56069;PMS5003;41944;52.078;-0.058;2023-05-07T16:06:59;3;3;
56069;PMS5003;41944;52.078;-0.058;2023-05-07T16:09:26;5;5;
56069;PMS5003;41944;52.078;-0.058;2023-05-07T16:11:52;3;3;
56069;PMS5003;41944;52.078;-0.058;2023-05-07T16:14:19;5;5;